Time;durP1;ratioP1;P1;durP2;ratioP2;P2;SDS_P1;SDS_P2;PMS_P1;PMS_P2;Temp;Humidity;BMP_temperature;BMP_pressure;BME280_temperature;BME280_humidity;BME280_pressure;Samples;Min_cycle;Max_cycle;Signal;HPM_P1;HPM_P2
2022/05/01 00:02:20;;;;;;;11.80;11.00;;;;;;;31.21;73.53;100648.31;5040065;28;69068;-36
2022/05/01 00:04:51;;;;;;;16.10;12.43;;;;;;;31.24;73.54;100653.28;5037532;28;66478;-35
2022/05/01 00:07:21;;;;;;;14.02;12.73;;;;;;;31.26;73.70;100659.28;5040166;28;69286;-36
2022/05/01 00:09:52;;;;;;;13.82;12.55;;;;;;;31.26;73.65;100652.00;5040613;28;65463;-34
2022/05/01 00:12:22;;;;;;;13.77;12.38;;;;;;;31.16;73.34;100647.09;5039130;28;69459;-35
2022/05/01 00:14:53;;;;;;;13.45;12.02;;;;;;;31.30;73.43;100669.44;5040600;28;66438;-35
2022/05/01 00:17:23;;;;;;;13.90;12.55;;;;;;;31.24;73.42;100658.72;5038902;28;69878;-35
2022/05/01 00:19:54;;;;;;;12.95;11.77;;;;;;;31.31;73.03;100671.09;5039173;28;66991;-34
2022/05/01 00:22:25;;;;;;;13.32;11.98;;;;;;;31.25;73.35;100665.78;5038415;28;69686;-35
2022/05/01 00:24:56;;;;;;;12.73;10.98;;;;;;;31.34;72.85;100683.34;5040602;28;66151;-34
2022/05/01 00:27:26;;;;;;;11.85;10.80;;;;;;;31.28;73.12;100674.25;5039871;28;69360;-35
2022/05/01 00:29:57;;;;;;;12.82;11.63;;;;;;;31.35;73.01;100687.75;5040735;28;66340;-36
2022/05/01 00:36:25;;;;;;;14.25;12.88;;;;;;;31.36;72.97;100692.13;5039961;28;70336;-34
2022/05/01 00:38:06;;;;;;;12.98;11.88;;;;;;;31.36;72.51;100686.72;5042719;28;70598;-36
2022/05/01 00:40:36;;;;;;;13.43;12.43;;;;;;;31.35;72.69;100677.72;5043810;28;66631;-39
2022/05/01 00:43:07;;;;;;;12.13;11.10;;;;;;;31.42;72.50;100687.69;5043509;28;70467;-35
2022/05/01 00:45:37;;;;;;;13.05;11.75;;;;;;;31.40;72.54;100690.63;5058123;28;66754;-35
2022/05/01 00:48:07;;;;;;;12.40;11.40;;;;;;;31.40;72.52;100687.94;5043252;28;69583;-35
2022/05/01 00:50:38;;;;;;;12.93;11.95;;;;;;;31.40;72.70;100690.63;5043599;28;66487;-35
2022/05/01 00:53:08;;;;;;;12.57;11.52;;;;;;;31.42;72.63;100688.50;5042912;28;69699;-36
2022/05/01 00:55:39;;;;;;;12.15;11.02;;;;;;;31.47;72.30;100680.50;5042563;28;65897;-36
2022/05/01 00:58:09;;;;;;;15.20;11.35;;;;;;;31.44;72.19;100685.56;5043328;28;70185;-35
2022/05/01 01:00:42;;;;;;;12.10;10.93;;;;;;;31.41;72.47;100676.00;5043668;28;66891;-35
2022/05/01 01:03:12;;;;;;;12.18;11.20;;;;;;;31.46;72.36;100680.75;5042220;28;69677;-35
2022/05/01 01:05:44;;;;;;;11.88;10.85;;;;;;;31.46;72.46;100683.47;5043079;28;65916;-36
2022/05/01 01:08:15;;;;;;;10.85;10.15;;;;;;;31.51;72.09;100692.56;5043483;28;69862;-36
2022/05/01 01:10:45;;;;;;;11.27;10.38;;;;;;;31.51;72.13;100689.00;5035298;28;66276;-34
2022/05/01 01:13:15;;;;;;;11.25;10.23;;;;;;;31.54;71.95;100686.69;5033337;28;69302;-35
2022/05/01 01:15:45;;;;;;;13.20;12.00;;;;;;;31.50;72.16;100681.94;5026200;28;67031;-37
2022/05/01 01:18:16;;;;;;;39.28;17.20;;;;;;;31.47;73.16;100685.13;5022493;28;69330;-37
2022/05/01 01:20:46;;;;;;;15.00;13.55;;;;;;;31.49;72.26;100678.41;5022421;28;65368;-36
2022/05/01 01:23:16;;;;;;;19.30;13.52;;;;;;;31.52;72.35;100688.78;5023506;28;69957;-41
2022/05/01 01:25:47;;;;;;;12.98;11.75;;;;;;;31.53;72.22;100686.91;5034644;28;66375;-39
2022/05/01 01:28:19;;;;;;;12.90;11.73;;;;;;;31.52;72.48;100680.66;5042338;28;69029;-33
2022/05/01 01:33:41;;;;;;;12.35;11.43;;;;;;;31.51;72.12;100670.88;5030862;28;70180;-37
2022/05/01 01:36:12;;;;;;;13.18;12.07;;;;;;;31.59;72.14;100688.69;5029149;28;66665;-35
2022/05/01 01:38:43;;;;;;;11.82;10.85;;;;;;;31.59;72.23;100689.53;5040572;28;69806;-35
2022/05/01 01:41:15;;;;;;;12.40;11.20;;;;;;;30.59;71.79;100532.81;5027132;28;65619;-36
2022/05/01 01:43:45;;;;;;;;;;;;;;;31.32;73.15;100705.28;5032224;28;70113;-39
2022/05/01 01:46:16;;;;;;;13.10;11.68;;;;;;;31.63;72.04;100697.22;5029190;28;66208;-36
2022/05/01 01:48:46;;;;;;;11.93;10.85;;;;;;;31.68;71.87;100694.59;5036706;28;69368;-36
2022/05/01 01:51:18;;;;;;;14.05;12.13;;;;;;;31.70;72.10;100690.63;5021029;28;66038;-36
2022/05/01 01:53:49;;;;;;;12.93;11.80;;;;;;;31.72;71.49;100693.09;5023683;28;70694;-36
2022/05/01 01:56:19;;;;;;;13.32;12.25;;;;;;;31.75;71.76;100689.94;5030341;28;66481;-36
2022/05/01 01:58:49;;;;;;;12.20;11.00;;;;;;;31.77;71.48;100685.13;5024098;28;70358;-37
2022/05/01 02:01:19;;;;;;;11.43;10.60;;;;;;;31.78;71.38;100681.34;5024098;28;66315;-36
2022/05/01 02:03:50;;;;;;;11.88;10.80;;;;;;;31.74;71.22;100663.88;5023039;28;68745;-36
2022/05/01 02:06:22;;;;;;;10.98;10.23;;;;;;;31.81;71.62;100670.03;5021404;28;43123;-35
2022/05/01 02:08:53;;;;;;;11.23;10.32;;;;;;;31.75;71.27;100651.97;5064303;28;70087;-35
2022/05/01 02:11:24;;;;;;;11.05;10.20;;;;;;;31.81;71.44;100653.75;5023161;28;65536;-37
2022/05/01 02:13:54;;;;;;;9.55;8.95;;;;;;;31.87;71.29;100662.84;5035941;28;69888;-37
2022/05/01 02:16:25;;;;;;;9.60;9.00;;;;;;;31.86;70.92;100666.63;5029478;28;66501;-34
2022/05/01 02:18:56;;;;;;;9.43;8.73;;;;;;;31.91;70.93;100664.91;5021248;28;69888;-37
2022/05/01 02:21:35;;;;;;;9.48;8.75;;;;;;;31.94;71.04;100680.72;5023405;28;65807;-37
2022/05/01 02:24:10;;;;;;;9.90;8.95;;;;;;;31.60;70.91;100620.69;5022227;28;70439;-36
2022/05/01 02:26:40;;;;;;;9.82;9.02;;;;;;;31.97;70.78;100663.97;5041602;28;66780;-36
2022/05/01 02:29:11;;;;;;;10.10;9.15;;;;;;;31.90;70.77;100655.09;5041131;28;70200;-35
2022/05/01 02:31:43;;;;;;;8.77;8.27;;;;;;;31.71;70.56;100620.97;5023086;28;66640;-36
2022/05/01 02:34:13;;;;;;;7.78;7.20;;;;;;;32.02;70.88;100674.94;5040899;28;70551;-36
2022/05/01 02:36:44;;;;;;;9.05;8.23;;;;;;;32.02;70.54;100669.53;5041020;28;65697;-36
2022/05/01 02:39:14;;;;;;;7.82;7.32;;;;;;;31.92;70.58;100649.44;5041606;28;69705;-36
2022/05/01 02:41:44;;;;;;;8.32;7.47;;;;;;;31.98;70.44;100657.50;5040667;28;66624;-35
2022/05/01 02:44:15;;;;;;;8.10;7.50;;;;;;;32.04;70.27;100670.13;5040618;28;69901;-35
2022/05/01 02:46:45;;;;;;;7.63;7.05;;;;;;;32.01;70.32;100676.00;5041878;28;66584;-37
2022/05/01 02:49:15;;;;;;;7.88;7.20;;;;;;;32.08;70.57;100683.22;5040550;28;69086;-36
2022/05/01 02:51:46;;;;;;;8.13;7.53;;;;;;;32.08;70.50;100675.91;5040752;28;66396;-37
2022/05/01 02:54:16;;;;;;;8.23;7.57;;;;;;;32.08;70.08;100669.66;5040613;28;69672;-37
2022/05/01 02:56:47;;;;;;;7.43;6.93;;;;;;;32.10;70.48;100681.09;5041134;28;66336;-36
2022/05/01 02:59:18;;;;;;;7.37;6.97;;;;;;;32.09;70.77;100676.72;5040371;28;69796;-37
2022/05/01 03:01:48;;;;;;;7.45;6.95;;;;;;;32.10;70.96;100683.81;5041371;28;66146;-36
2022/05/01 03:04:18;;;;;;;8.02;7.32;;;;;;;32.04;70.68;100689.09;5040838;28;70365;-36
2022/05/01 03:06:49;;;;;;;7.22;6.70;;;;;;;32.05;70.96;100708.94;5041088;28;66696;-36
2022/05/01 03:09:19;;;;;;;7.35;6.65;;;;;;;32.09;70.98;100728.28;5041386;28;69975;-35
2022/05/01 03:11:49;;;;;;;7.35;6.85;;;;;;;31.99;71.00;100710.69;5040338;28;65497;-37
2022/05/01 03:14:19;;;;;;;7.20;6.60;;;;;;;32.00;71.08;100706.06;5040725;28;70327;-36
2022/05/01 03:16:49;;;;;;;7.28;6.72;;;;;;;32.01;70.97;100697.72;5041483;28;66409;-36
2022/05/01 03:22:11;;;;;;;6.95;6.45;;;;;;;31.96;70.79;100699.47;5040728;28;65713;-39
2022/05/01 03:24:42;;;;;;;6.95;6.35;;;;;;;31.91;71.23;100694.72;5041037;28;70218;-36
2022/05/01 03:27:13;;;;;;;6.70;6.10;;;;;;;32.02;71.05;100715.63;5041691;28;67835;-36
2022/05/01 03:30:15;;;;;;;6.45;6.00;;;;;;;32.05;70.92;100704.31;5041041;28;69994;-35
2022/05/01 03:32:33;;;;;;;7.53;6.57;;;;;;;32.04;71.02;100708.09;5039783;28;66325;-35
2022/05/01 03:35:04;;;;;;;6.53;6.07;;;;;;;32.03;71.21;100703.72;5036207;28;69241;-36
2022/05/01 03:37:34;;;;;;;6.93;6.28;;;;;;;32.02;71.00;100702.06;5020539;28;66015;-36
2022/05/01 03:40:05;;;;;;;6.22;5.82;;;;;;;32.04;71.14;100708.09;5019930;28;69763;-39
2022/05/01 03:42:35;;;;;;;6.10;5.68;;;;;;;32.04;71.10;100704.56;5019641;28;66165;-38
2022/05/01 03:45:06;;;;;;;6.82;6.05;;;;;;;32.05;70.78;100693.47;5019530;28;70474;-38
2022/05/01 03:47:37;;;;;;;6.07;5.57;;;;;;;31.95;71.12;100670.69;5034507;28;66221;-36
2022/05/01 03:50:07;;;;;;;6.30;5.70;;;;;;;31.98;71.02;100679.19;5031576;28;68796;-37
2022/05/01 03:52:38;;;;;;;5.03;4.60;;;;;;;31.96;70.99;100675.88;5017701;28;65924;-39
2022/05/01 03:55:09;;;;;;;6.13;5.55;;;;;;;31.98;71.39;100684.63;5019398;28;69231;-36
2022/05/01 03:57:40;;;;;;;7.05;5.78;;;;;;;31.99;71.47;100683.56;5020589;28;66026;-37
2022/05/01 04:00:18;;;;;;;5.47;4.97;;;;;;;31.97;71.53;100677.53;5017905;28;69464;-37
2022/05/01 04:02:48;;;;;;;5.32;4.78;;;;;;;31.95;71.88;100662.53;5022091;28;66051;-36
2022/05/01 04:05:18;;;;;;;5.55;5.07;;;;;;;31.97;71.77;100665.84;5040658;28;70408;-37
2022/05/01 04:07:49;;;;;;;5.75;5.35;;;;;;;31.92;71.72;100666.53;5040135;28;65942;-36
2022/05/01 04:10:19;;;;;;;5.60;5.13;;;;;;;31.50;71.64;100592.47;5039727;28;69065;-36
2022/05/01 04:12:49;;;;;;;5.35;4.95;;;;;;;31.94;72.10;100659.00;5039297;28;66136;-36
2022/05/01 04:15:19;;;;;;;5.32;4.85;;;;;;;31.94;72.30;100647.31;5039472;28;70080;-35
2022/05/01 04:17:50;;;;;;;4.80;4.50;;;;;;;31.93;72.05;100643.78;5040627;28;66438;-36
2022/05/01 04:20:20;;;;;;;7.18;6.47;;;;;;;31.95;71.89;100644.38;5040208;28;69874;-38
2022/05/01 04:22:51;;;;;;;13.70;8.05;;;;;;;31.85;72.11;100630.53;5040708;28;66282;-35
2022/05/01 04:25:23;;;;;;;18.17;9.13;;;;;;;31.94;72.59;100653.56;5022523;28;70087;-36
2022/05/01 04:27:57;;;;;;;12.13;8.50;;;;;;;31.96;72.69;100639.78;5039531;28;66017;-35
2022/05/01 04:30:29;;;;;;;25.10;11.35;;;;;;;31.93;72.76;100643.78;5040682;28;69951;-36
2022/05/01 04:33:16;;;;;;;23.92;12.80;;;;;;;31.87;73.19;100636.53;5038256;28;66237;-36
2022/05/01 04:35:48;;;;;;;30.25;13.35;;;;;;;31.94;73.21;100652.75;5040021;28;70927;-35
2022/05/01 04:38:21;;;;;;;33.42;15.48;;;;;;;31.79;73.02;100623.34;5037378;28;66519;-36
2022/05/01 04:40:55;;;;;;;28.88;16.38;;;;;;;31.67;73.38;100611.63;5021240;28;70081;-37
2022/05/01 04:43:27;;;;;;;31.83;18.40;;;;;;;31.74;73.52;100621.31;5039632;28;66353;-36
2022/05/01 04:45:58;;;;;;;36.38;17.13;;;;;;;31.86;73.26;100637.59;5041017;28;69548;-35
2022/05/01 04:48:29;;;;;;;28.80;17.33;;;;;;;31.81;73.41;100632.03;5038931;28;65603;-35
2022/05/01 04:51:00;;;;;;;29.83;16.90;;;;;;;31.92;72.92;100638.59;5040400;28;70025;-36
2022/05/01 04:53:30;;;;;;;29.80;16.63;;;;;;;31.85;73.33;100627.81;5039520;28;65178;-35
2022/05/01 04:57:04;;;;;;;26.70;15.10;;;;;;;31.87;73.29;100625.69;5037462;28;70218;-37
2022/05/01 04:58:50;;;;;;;29.10;16.23;;;;;;;31.87;72.89;100614.84;5023642;28;65411;-36
2022/05/01 05:01:21;;;;;;;23.65;14.55;;;;;;;31.87;73.24;100612.13;5019227;28;69147;-35
2022/05/01 05:03:51;;;;;;;23.02;13.02;;;;;;;31.82;73.16;100601.16;5027574;28;66089;-36
2022/05/01 05:06:23;;;;;;;16.42;12.52;;;;;;;31.79;73.01;100598.94;5039436;28;69582;-35
2022/05/01 05:11:43;;;;;;;16.98;11.60;;;;;;;31.78;73.14;100589.13;5039168;28;69710;-36
2022/05/01 05:14:13;;;;;;;22.15;12.50;;;;;;;31.87;73.34;100597.75;5040026;28;66557;-36
2022/05/01 05:16:43;;;;;;;14.27;11.82;;;;;;;31.84;72.95;100582.75;5040093;28;69457;-36
2022/05/01 05:19:14;;;;;;;17.48;11.77;;;;;;;31.87;73.08;100587.72;5024652;28;65596;-36
2022/05/01 05:21:44;;;;;;;12.55;11.13;;;;;;;31.79;73.34;100560.97;5021727;28;69934;-36
2022/05/01 05:24:24;;;;;;;11.60;10.50;;;;;;;31.57;73.02;100518.13;5023471;28;66397;-37
2022/05/01 05:26:54;;;;;;;11.60;10.27;;;;;;;31.87;72.88;100559.75;5040852;28;70500;-35
2022/05/01 05:29:24;;;;;;;12.38;9.95;;;;;;;31.80;72.86;100527.34;5043934;28;66183;-36
2022/05/01 05:31:54;;;;;;;11.32;10.10;;;;;;;31.84;72.76;100533.94;5043242;28;70156;-36
2022/05/01 05:34:25;;;;;;;11.48;9.30;;;;;;;31.86;72.76;100520.97;5042443;28;66811;-35
2022/05/01 05:36:56;;;;;;;10.18;9.35;;;;;;;31.85;72.90;100511.19;5026754;28;70863;-36
2022/05/01 05:39:26;;;;;;;10.18;9.23;;;;;;;31.76;72.90;100488.19;5023250;28;66642;-36
2022/05/01 05:41:56;;;;;;;9.80;8.80;;;;;;;31.88;72.93;100499.06;5021301;28;69742;-35
2022/05/01 05:44:27;;;;;;;9.45;8.52;;;;;;;31.87;72.83;100484.63;5021893;28;66253;-36
2022/05/01 05:46:57;;;;;;;9.25;8.30;;;;;;;31.84;72.78;100485.13;5022673;28;69910;-36
2022/05/01 05:49:27;;;;;;;7.47;6.97;;;;;;;31.85;72.75;100492.22;5025306;28;66467;-36
2022/05/01 05:51:59;;;;;;;7.53;6.93;;;;;;;31.90;72.37;100486.91;5042925;28;69380;-37
2022/05/01 05:54:29;;;;;;;7.22;6.60;;;;;;;31.87;72.57;100479.22;5027161;28;66099;-36
2022/05/01 05:56:59;;;;;;;7.85;7.03;;;;;;;31.91;72.49;100485.88;5022810;28;69175;-36
2022/05/01 05:59:29;;;;;;;7.30;6.80;;;;;;;31.91;72.33;100477.72;5022087;28;65545;-36
2022/05/01 06:02:00;;;;;;;6.47;6.03;;;;;;;31.93;72.79;100482.91;5020922;28;69240;-36
2022/05/01 06:04:31;;;;;;;6.77;6.10;;;;;;;31.80;72.58;100459.53;5035525;28;66250;-36
2022/05/01 06:07:01;;;;;;;7.03;6.53;;;;;;;31.82;72.42;100455.53;5042660;28;70916;-36
2022/05/01 06:09:32;;;;;;;6.13;5.65;;;;;;;31.95;72.54;100476.16;5042359;28;66151;-35
2022/05/01 06:12:03;;;;;;;6.55;6.15;;;;;;;31.91;72.57;100463.31;5042594;28;70118;-39
2022/05/01 06:14:33;;;;;;;6.82;6.22;;;;;;;31.89;72.53;100455.41;5042970;28;65589;-36
2022/05/01 06:17:03;;;;;;;6.13;5.50;;;;;;;31.95;72.58;100459.06;5041276;28;70470;-36
2022/05/01 06:19:34;;;;;;;6.40;5.80;;;;;;;31.98;72.35;100454.03;5041621;28;64997;-37
2022/05/01 06:22:04;;;;;;;6.05;5.65;;;;;;;31.99;72.49;100454.84;5042339;28;70366;-37
2022/05/01 06:24:34;;;;;;;6.22;5.78;;;;;;;31.96;72.34;100445.28;5041524;28;66114;-37
2022/05/01 06:27:05;;;;;;;6.68;5.30;;;;;;;32.01;72.65;100436.41;5042363;28;70020;-35
2022/05/01 06:29:35;;;;;;;5.88;5.47;;;;;;;32.02;72.53;100433.47;5033530;28;66194;-36
2022/05/01 06:32:06;;;;;;;6.40;5.78;;;;;;;31.97;72.53;100419.81;5066094;28;68227;-35
2022/05/01 06:34:37;;;;;;;6.55;6.00;;;;;;;32.01;72.44;100421.00;5029818;28;66486;-37
2022/05/01 06:37:07;;;;;;;6.93;6.47;;;;;;;32.01;72.38;100415.56;5034915;28;69863;-36
2022/05/01 06:39:37;;;;;;;6.43;5.97;;;;;;;32.07;72.50;100412.94;5034009;28;66175;-36
2022/05/01 06:42:09;;;;;;;6.82;6.43;;;;;;;32.08;72.60;100410.00;5018813;28;69920;-36
2022/05/01 06:44:39;;;;;;;6.55;6.05;;;;;;;32.10;72.30;100399.72;5028815;28;66170;-36
2022/05/01 06:47:12;;;;;;;6.38;5.97;;;;;;;32.10;72.10;100385.34;5029245;28;70397;-37
2022/05/01 06:49:43;;;;;;;6.68;6.15;;;;;;;32.12;72.02;100383.19;5034304;28;66349;-37
2022/05/01 06:52:13;;;;;;;6.72;6.22;;;;;;;32.17;72.17;100386.00;5029105;28;69329;-36
2022/05/01 06:54:44;;;;;;;7.57;6.88;;;;;;;32.10;71.96;100374.50;5032881;28;66461;-36
2022/05/01 06:57:14;;;;;;;6.90;6.50;;;;;;;32.18;71.73;100377.66;5028252;28;69930;-35
2022/05/01 06:59:44;;;;;;;7.47;6.88;;;;;;;32.23;71.97;100374.19;5024269;28;66189;-36
2022/05/01 07:02:16;;;;;;;6.90;6.50;;;;;;;32.22;71.36;100378.81;5028223;28;70301;-36
2022/05/01 07:04:47;;;;;;;6.30;5.90;;;;;;;32.25;71.61;100367.44;5033339;28;65574;-35
2022/05/01 07:07:17;;;;;;;5.90;5.50;;;;;;;32.23;71.55;100358.75;5030870;28;69426;-36
2022/05/01 07:09:47;;;;;;;7.18;6.47;;;;;;;32.32;71.47;100364.63;5032399;28;66432;-38
2022/05/01 07:12:18;;;;;;;6.40;5.90;;;;;;;32.33;71.45;100371.69;5020036;28;69893;-36
2022/05/01 07:14:48;;;;;;;6.25;5.85;;;;;;;32.38;71.33;100371.78;5053047;28;66320;-37
2022/05/01 07:17:18;;;;;;;6.55;6.05;;;;;;;32.40;71.12;100364.22;5019719;28;69595;-36
2022/05/01 07:19:49;;;;;;;6.43;6.03;;;;;;;32.12;70.77;100307.22;5022060;28;66263;-36
2022/05/01 07:22:19;;;;;;;6.03;5.72;;;;;;;32.45;70.72;100339.88;5020368;28;70262;-36
2022/05/01 07:24:50;;;;;;;6.50;6.03;;;;;;;32.43;70.83;100331.16;5021936;28;66357;-36
2022/05/01 07:27:20;;;;;;;6.68;6.07;;;;;;;32.35;71.62;100320.69;5020843;28;69454;-39
2022/05/01 07:29:50;;;;;;;6.90;6.20;;;;;;;32.45;71.65;100326.28;5020390;28;65597;-36
2022/05/01 07:32:26;;;;;;;6.85;6.35;;;;;;;32.47;71.05;100324.19;5020580;28;70545;-38
2022/05/01 07:34:56;;;;;;;7.07;6.47;;;;;;;32.51;70.66;100321.00;5021122;28;65777;-34
2022/05/01 07:37:26;;;;;;;6.32;5.82;;;;;;;32.58;71.04;100318.94;5020623;28;70468;-36
2022/05/01 07:39:57;;;;;;;6.03;5.53;;;;;;;32.60;70.75;100308.69;5037429;28;66051;-37
2022/05/01 07:42:27;;;;;;;6.22;5.82;;;;;;;32.66;70.84;100307.69;5036951;28;69916;-36
2022/05/01 07:44:57;;;;;;;6.88;5.93;;;;;;;32.65;70.54;100300.59;5032043;28;66449;-38
2022/05/01 07:47:28;;;;;;;6.03;5.63;;;;;;;32.71;70.57;100310.50;5030285;28;70334;-38
2022/05/01 07:49:58;;;;;;;5.97;5.43;;;;;;;32.74;70.56;100306.47;5030217;28;66511;-36
2022/05/01 07:52:28;;;;;;;6.03;5.63;;;;;;;32.77;70.58;100314.13;5025422;28;70497;-37
2022/05/01 07:54:59;;;;;;;6.07;5.57;;;;;;;32.78;70.40;100316.56;5036684;28;65670;-36
2022/05/01 07:57:30;;;;;;;6.18;5.60;;;;;;;32.69;70.53;100290.91;5032524;28;70449;-36
2022/05/01 08:00:00;;;;;;;5.68;5.25;;;;;;;32.83;70.28;100315.84;5021949;28;66536;-37
2022/05/01 08:04:27;;;;;;;6.00;5.60;;;;;;;32.85;70.08;100316.41;5020277;28;69195;-36
2022/05/01 08:05:28;;;;;;;5.95;5.55;;;;;;;32.85;70.35;100311.81;5035276;28;65418;-37
2022/05/01 08:07:58;;;;;;;5.38;5.07;;;;;;;32.81;69.99;100297.06;5018479;28;70230;-42
2022/05/01 08:10:29;;;;;;;5.20;4.90;;;;;;;32.92;70.13;100314.34;5017849;28;65306;-37
2022/05/01 08:12:59;;;;;;;5.03;4.72;;;;;;;32.85;69.72;100290.06;5021144;28;70540;-38
2022/05/01 08:15:29;;;;;;;5.22;4.85;;;;;;;32.96;69.68;100307.34;5020769;28;65589;-36
2022/05/01 08:21:07;;;;;;;4.78;4.47;;;;;;;32.98;69.74;100298.94;4999537;28;66389;-36
2022/05/01 08:23:41;;;;;;;4.72;4.43;;;;;;;33.01;69.48;100302.00;5020570;28;69609;-36
2022/05/01 08:26:13;;;;;;;4.97;4.57;;;;;;;33.00;69.00;100296.84;5049880;28;65774;-37
2022/05/01 08:28:45;;;;;;;4.57;4.25;;;;;;;33.07;69.06;100308.34;5037054;28;69813;-36
2022/05/01 08:31:15;;;;;;;;;;;;;;;32.74;69.71;100315.44;5040518;28;66257;-36
2022/05/01 08:33:46;;;;;;;4.57;4.15;;;;;;;32.93;69.27;100296.97;5040369;28;70297;-35
2022/05/01 08:36:16;;;;;;;4.72;4.43;;;;;;;33.09;69.05;100317.06;5037275;28;65111;-36
2022/05/01 08:38:46;;;;;;;4.72;4.43;;;;;;;33.11;68.86;100331.25;5040132;28;70371;-36
2022/05/01 08:41:17;;;;;;;6.00;4.38;;;;;;;33.11;68.77;100325.81;5040281;28;65882;-38
2022/05/01 08:43:47;;;;;;;5.00;4.60;;;;;;;33.12;68.64;100338.31;5039887;28;70537;-37
2022/05/01 08:46:31;;;;;;;4.50;4.20;;;;;;;33.11;68.28;100331.25;5040626;28;66470;-36
2022/05/01 08:49:09;;;;;;;4.22;3.92;;;;;;;33.12;68.04;100327.44;5036569;28;69413;-35
2022/05/01 08:51:41;;;;;;;4.30;4.00;;;;;;;32.75;68.24;100254.59;5040341;28;65687;-36
2022/05/01 08:54:15;;;;;;;4.13;3.83;;;;;;;32.67;68.06;100225.13;5054863;28;70591;-35
2022/05/01 08:56:46;;;;;;;3.40;3.10;;;;;;;33.09;68.40;100298.88;5042838;28;66726;-35
2022/05/01 08:59:17;;;;;;;3.35;3.15;;;;;;;33.10;68.10;100310.59;5043390;28;70023;-37
2022/05/01 09:01:48;;;;;;;4.55;3.05;;;;;;;33.08;68.16;100304.56;5042602;28;66031;-35
2022/05/01 09:04:18;;;;;;;3.63;3.33;;;;;;;33.03;67.91;100293.63;5043454;28;69914;-37
2022/05/01 09:06:48;;;;;;;3.38;3.08;;;;;;;33.06;68.19;100307.53;5043992;28;65684;-37
2022/05/01 09:09:21;;;;;;;3.28;3.08;;;;;;;33.01;67.82;100293.03;5042720;28;70106;-37
2022/05/01 09:14:42;;;;;;;3.28;3.08;;;;;;;33.08;68.15;100316.25;5043025;28;70482;-36
2022/05/01 09:17:18;;;;;;;3.60;3.40;;;;;;;33.01;67.81;100309.34;5043800;28;66536;-37
2022/05/01 09:19:51;;;;;;;2.90;2.70;;;;;;;33.07;67.98;100327.34;5043765;28;70237;-37
2022/05/01 09:22:22;;;;;;;3.10;2.90;;;;;;;33.09;67.92;100328.75;5037108;28;66838;-36
2022/05/01 09:24:53;;;;;;;2.90;2.70;;;;;;;33.01;67.74;100336.50;5021638;28;68916;-36
2022/05/01 09:27:32;;;;;;;2.55;2.40;;;;;;;32.65;67.65;100278.88;5023931;28;65404;-36
2022/05/01 09:30:14;;;;;;;2.63;2.42;;;;;;;33.02;67.77;100346.31;5032987;28;70751;-37
2022/05/01 09:32:45;;;;;;;3.00;2.80;;;;;;;33.01;67.87;100342.75;5031998;28;65496;-36
2022/05/01 09:35:29;;;;;;;2.90;2.70;;;;;;;32.91;67.27;100331.72;5031116;28;69362;-36
2022/05/01 09:38:19;;;;;;;4.22;2.72;;;;;;;32.60;67.15;100293.19;5038510;28;65641;-36
2022/05/01 09:40:55;;;;;;;4.32;2.33;;;;;;;32.59;67.22;100275.25;5025383;28;69753;-36
2022/05/01 09:43:37;;;;;;;2.47;2.30;;;;;;;32.97;66.87;100347.03;5032410;28;66588;-35
2022/05/01 09:46:15;;;;;;;4.80;2.67;;;;;;;32.82;67.05;100309.59;5029809;28;69514;-36
2022/05/01 09:49:02;;;;;;;3.00;2.70;;;;;;;32.91;66.62;100337.97;5024490;28;65682;-36
2022/05/01 09:51:42;;;;;;;2.50;2.30;;;;;;;32.98;66.52;100335.09;5029749;28;70593;-36
2022/05/01 09:54:26;;;;;;;2.58;2.38;;;;;;;32.50;66.46;100257.72;5035581;28;66009;-36
2022/05/01 09:56:58;;;;;;;4.78;2.83;;;;;;;32.80;66.64;100314.44;5023663;28;69824;-36
2022/05/01 09:59:29;;;;;;;3.15;2.95;;;;;;;32.94;66.52;100325.78;5028027;28;65414;-35
2022/05/01 10:02:02;;;;;;;3.88;3.08;;;;;;;32.67;66.65;100282.16;5025390;28;69827;-35
2022/05/01 10:04:37;;;;;;;3.58;3.22;;;;;;;32.91;66.51;100320.84;5032712;28;66183;-37
2022/05/01 10:07:08;;;;;;;3.20;3.00;;;;;;;32.72;66.64;100307.50;5015877;28;69526;-37
2022/05/01 10:09:39;;;;;;;3.10;2.90;;;;;;;32.90;66.90;100346.34;5026987;28;65377;-37
2022/05/01 10:12:11;;;;;;;3.90;3.60;;;;;;;32.78;66.87;100327.44;5029202;28;69061;-36
2022/05/01 10:14:42;;;;;;;4.95;4.47;;;;;;;32.88;67.00;100343.91;5032661;28;66779;-35
2022/05/01 10:17:12;;;;;;;6.03;5.53;;;;;;;32.88;67.04;100351.25;5027545;28;69056;-36
2022/05/01 10:19:43;;;;;;;4.72;4.43;;;;;;;32.68;67.02;100319.09;5039331;28;65751;-36
2022/05/01 10:22:14;;;;;;;4.50;4.20;;;;;;;32.86;67.01;100343.31;5024464;28;70304;-37
2022/05/01 10:24:44;;;;;;;4.38;4.07;;;;;;;32.72;66.87;100328.41;5035758;28;66058;-37
2022/05/01 10:27:48;;;;;;;4.68;4.38;;;;;;;32.69;66.60;100326.19;5027741;28;70084;-36
2022/05/01 10:33:33;;;;;;;4.28;3.97;;;;;;;32.82;66.54;100363.91;5030424;28;69773;-35
2022/05/01 10:36:28;;;;;;;4.47;4.18;;;;;;;32.71;66.52;100364.81;5032044;28;66565;-35
2022/05/01 10:39:14;;;;;;;4.68;4.38;;;;;;;32.77;66.06;100371.97;5040354;28;70142;-37
2022/05/01 10:41:46;;;;;;;4.57;4.20;;;;;;;32.78;66.59;100362.75;5041561;28;66640;-35
2022/05/01 10:44:29;;;;;;;4.68;4.38;;;;;;;32.28;66.23;100307.25;5038655;28;70069;-34
2022/05/01 10:47:12;;;;;;;4.05;3.75;;;;;;;32.39;65.92;100335.41;5034569;28;66636;-34
2022/05/01 10:49:47;;;;;;;4.07;3.75;;;;;;;32.76;66.07;100394.75;5021569;28;70371;-35
2022/05/01 10:52:23;;;;;;;4.13;3.78;;;;;;;32.75;66.05;100393.13;5019342;28;65358;-36
2022/05/01 10:54:58;;;;;;;3.95;3.63;;;;;;;32.65;66.33;100393.78;5037454;28;70436;-36
2022/05/01 10:57:31;;;;;;;4.80;3.60;;;;;;;32.70;66.66;100403.88;5038850;28;66502;-35
2022/05/01 11:00:07;;;;;;;5.28;3.40;;;;;;;32.68;66.35;100397.84;5041608;28;69766;-35
2022/05/01 11:02:42;;;;;;;5.65;3.50;;;;;;;32.25;66.29;100334.06;5040951;28;66205;-34
2022/05/01 11:05:42;;;;;;;4.20;3.90;;;;;;;32.55;66.58;100400.91;5041944;28;70562;-35
2022/05/01 11:08:19;;;;;;;4.07;3.67;;;;;;;32.60;66.68;100395.56;5041497;28;65859;-36
2022/05/01 11:10:53;;;;;;;4.28;3.97;;;;;;;32.10;66.74;100315.63;5041614;28;69904;-36
2022/05/01 11:13:33;;;;;;;4.15;3.85;;;;;;;32.61;66.43;100399.91;5039661;28;66801;-35
2022/05/01 11:16:05;;;;;;;4.25;3.95;;;;;;;32.04;66.59;100311.16;5041200;28;70049;-36
2022/05/01 11:18:36;;;;;;;4.65;4.18;;;;;;;32.57;66.69;100402.31;5041141;28;66217;-35
2022/05/01 11:21:26;;;;;;;5.82;5.43;;;;;;;32.48;66.46;100409.16;5040249;28;71372;-34
2022/05/01 11:24:04;;;;;;;5.90;5.50;;;;;;;32.51;66.67;100394.28;5039556;28;66404;-35
2022/05/01 11:26:34;;;;;;;5.90;5.50;;;;;;;32.47;66.71;100397.50;5031688;28;70363;-35
2022/05/01 11:29:13;;;;;;;6.30;5.90;;;;;;;32.62;66.33;100420.56;5028882;28;66666;-35
2022/05/01 11:31:44;;;;;;;6.90;6.28;;;;;;;32.59;66.76;100426.47;5030375;28;69693;-36
2022/05/01 11:34:24;;;;;;;7.05;6.32;;;;;;;32.59;66.54;100442.78;5025631;28;65648;-37
2022/05/01 11:37:07;;;;;;;7.32;6.93;;;;;;;32.60;66.47;100436.31;5034821;28;70162;-36
2022/05/01 11:39:47;;;;;;;7.30;6.90;;;;;;;32.56;66.87;100437.84;5037427;28;66687;-36
2022/05/01 11:42:29;;;;;;;10.02;7.00;;;;;;;32.59;66.54;100449.03;5029995;28;69653;-35
2022/05/01 11:45:01;;;;;;;6.65;6.25;;;;;;;31.78;66.71;100317.91;5035844;28;65940;-35
2022/05/01 11:47:34;;;;;;;6.85;6.45;;;;;;;32.62;66.57;100458.59;5024874;28;69307;-36
2022/05/01 11:50:05;;;;;;;7.45;6.80;;;;;;;32.61;66.67;100457.75;5036529;28;65476;-36
2022/05/01 11:52:37;;;;;;;7.68;6.97;;;;;;;32.65;66.91;100468.97;5034342;28;70103;-36
2022/05/01 11:55:08;;;;;;;8.02;7.43;;;;;;;32.59;66.59;100469.94;5032923;28;66219;-35
2022/05/01 12:03:11;;;;;;;9.82;9.23;;;;;;;32.30;66.64;100418.31;5032119;28;70555;-35
2022/05/01 12:05:46;;;;;;;8.90;8.40;;;;;;;32.27;66.33;100424.22;5028290;28;66274;-37
2022/05/01 12:08:20;;;;;;;9.13;8.63;;;;;;;32.64;66.77;100480.91;5030065;28;70319;-35
2022/05/01 12:10:51;;;;;;;9.55;8.73;;;;;;;32.69;66.75;100500.00;5031615;28;67699;-35
2022/05/01 12:13:24;;;;;;;9.65;9.15;;;;;;;32.51;66.46;100467.59;5036048;28;69200;-35